Delaware, Arkansas
Current Conditions -  °F | °C
As of 2:53 PM on Monday 24 Nov 2014 (Local Time) from KRUE Reporting Station
Clear Clear  
Wind Chill: 58°   Ceiling: Unl
Heat Index: 58°   Visibility: 10mi
Dew Point: 22°   Wind: 10mph
Humidity: 25%   Direction: 260°W
Pressure: 29.9"   Gusts: 24mph
Location:  35.28°N, 93.3°W
Report Text: KRUE 242053Z AUTO 26009G21KT 230V290 10SM CLR 14/M06 A2990 RMK AO2 PK WND 29028/2000 SLP121 T01441056 55001
Loading
Personal Weather Stations






























Interactive Weather Map New forecast layout! Learn more

10-Day Weather Forecast

Advertisements
Track Severe Weather on mobile